createdAt,value
2023-03-26T00:01:33.917Z,0.77
2023-03-26T00:04:35.827Z,0.70
2023-03-26T00:07:37.525Z,0.60
2023-03-26T00:10:40.124Z,0.63
2023-03-26T00:13:44.029Z,0.70
2023-03-26T00:16:47.710Z,0.77
2023-03-26T00:19:52.503Z,0.53
2023-03-26T00:22:55.314Z,0.73
2023-03-26T00:25:57.170Z,0.70
2023-03-26T00:29:00.326Z,0.77
2023-03-26T00:32:02.174Z,0.70
2023-03-26T00:35:04.572Z,0.80
2023-03-26T00:38:09.416Z,0.75
2023-03-26T00:41:23.231Z,0.82
2023-03-26T00:44:25.007Z,0.60
2023-03-26T00:47:29.535Z,0.90
2023-03-26T00:50:34.169Z,0.73
2023-03-26T00:53:39.133Z,1.02
2023-03-26T00:56:40.890Z,0.60
2023-03-26T00:59:42.659Z,0.65
2023-03-26T01:02:45.363Z,0.70
2023-03-26T01:05:56.483Z,0.70
2023-03-26T01:09:04.563Z,0.98
2023-03-26T01:12:07.584Z,1.05
2023-03-26T01:15:09.969Z,0.70
2023-03-26T01:18:14.289Z,1.00
2023-03-26T01:21:22.798Z,0.65
2023-03-26T01:24:28.535Z,1.17
2023-03-26T01:27:44.895Z,1.02
2023-03-26T01:30:52.418Z,1.20
2023-03-26T01:33:58.462Z,0.67
2023-03-26T01:37:08.348Z,0.85
2023-03-26T01:40:46.904Z,1.10
2023-03-26T01:43:59.082Z,0.60
2023-03-26T01:47:00.907Z,0.73
2023-03-26T01:50:06.843Z,0.70
2023-03-26T01:53:09.691Z,1.13
2023-03-26T01:56:15.415Z,1.00
2023-03-26T01:59:37.019Z,0.70
2023-03-26T02:03:10.217Z,0.70
2023-03-26T02:06:48.286Z,0.82
2023-03-26T02:09:56.505Z,0.82
2023-03-26T02:12:58.343Z,1.05
2023-03-26T02:16:01.609Z,0.80
2023-03-26T02:19:04.551Z,0.80
2023-03-26T02:22:09.550Z,0.70
2023-03-26T02:25:12.927Z,0.90
2023-03-26T02:28:14.614Z,0.93
2023-03-26T02:31:17.362Z,0.80
2023-03-26T02:34:19.316Z,0.60
2023-03-26T02:37:24.480Z,0.50
2023-03-26T02:40:26.351Z,0.80
2023-03-26T02:43:28.228Z,0.63
2023-03-26T02:46:30.015Z,0.70
2023-03-26T02:49:31.865Z,0.93
2023-03-26T02:52:37.642Z,0.70
2023-03-26T02:55:42.228Z,0.98
2023-03-26T02:58:43.896Z,0.65
2023-03-26T03:01:45.648Z,0.80
2023-03-26T03:04:47.398Z,1.00
2023-03-26T03:07:52.590Z,0.90
2023-03-26T03:10:59.318Z,0.85
2023-03-26T03:14:01.025Z,0.80
2023-03-26T03:17:02.769Z,0.60
2023-03-26T03:20:06.551Z,0.77
2023-03-26T03:23:11.116Z,0.75
2023-03-26T03:26:17.604Z,0.70
2023-03-26T03:29:19.654Z,0.80
2023-03-26T03:32:22.952Z,0.90
2023-03-26T03:35:25.945Z,0.93
2023-03-26T03:38:30.596Z,1.00
2023-03-26T03:41:32.353Z,0.93
2023-03-26T03:44:34.006Z,0.90
2023-03-26T03:47:36.057Z,1.05
2023-03-26T03:50:37.748Z,0.93
2023-03-26T03:53:44.697Z,0.90
2023-03-26T03:56:47.476Z,0.77
2023-03-26T03:59:49.358Z,0.80
2023-03-26T04:02:54.587Z,1.23
2023-03-26T04:05:56.844Z,1.07
2023-03-26T04:09:01.493Z,0.77
2023-03-26T04:12:03.208Z,0.80
2023-03-26T04:15:05.445Z,1.02
2023-03-26T04:18:10.787Z,1.20
2023-03-26T04:21:12.837Z,0.98
2023-03-26T04:24:17.396Z,1.00
2023-03-26T04:27:20.387Z,0.75
2023-03-26T04:30:22.262Z,0.90
2023-03-26T04:33:25.155Z,1.00
2023-03-26T04:36:29.248Z,1.17
2023-03-26T04:39:37.755Z,1.10
2023-03-26T04:42:46.445Z,1.07
2023-03-26T04:45:48.269Z,1.00
2023-03-26T04:48:50.790Z,1.08
2023-03-26T04:51:52.596Z,0.95
2023-03-26T04:54:57.233Z,1.30
2023-03-26T04:58:05.599Z,1.05
2023-03-26T05:01:10.188Z,0.77
2023-03-26T05:04:13.715Z,1.55
2023-03-26T05:07:17.893Z,1.20
2023-03-26T05:10:24.773Z,0.90
2023-03-26T05:13:29.382Z,1.10
2023-03-26T05:16:31.965Z,1.27
2023-03-26T05:19:33.773Z,1.47
2023-03-26T05:22:37.898Z,1.40
2023-03-26T05:25:40.002Z,1.50
2023-03-26T05:28:41.750Z,1.60
2023-03-26T05:31:44.424Z,2.10
2023-03-26T05:34:46.131Z,1.40
2023-03-26T05:37:49.751Z,1.70
2023-03-26T05:40:51.497Z,1.30
2023-03-26T05:43:56.623Z,1.90
2023-03-26T05:46:58.298Z,1.30
2023-03-26T05:50:00.243Z,1.25
2023-03-26T05:53:01.906Z,1.75
2023-03-26T05:56:04.441Z,1.93
2023-03-26T05:59:06.959Z,2.22
2023-03-26T06:02:09.786Z,1.20
2023-03-26T06:05:12.615Z,1.60
2023-03-26T06:08:14.363Z,1.92
2023-03-26T06:11:17.028Z,1.67
2023-03-26T06:14:18.757Z,2.42
2023-03-26T06:17:20.745Z,2.20
2023-03-26T06:20:22.487Z,2.33
2023-03-26T06:23:24.229Z,1.50
2023-03-26T06:26:25.931Z,2.20
2023-03-26T06:29:27.666Z,1.85
2023-03-26T06:32:29.395Z,2.20
2023-03-26T06:35:31.316Z,2.30
2023-03-26T06:38:33.066Z,2.38
2023-03-26T06:41:35.349Z,2.37
2023-03-26T06:44:37.045Z,2.20
2023-03-26T06:47:38.853Z,2.45
2023-03-26T06:50:40.589Z,1.83
2023-03-26T06:53:42.324Z,1.98
2023-03-26T06:56:45.027Z,1.87
2023-03-26T06:59:46.846Z,2.20
2023-03-26T07:02:48.642Z,1.55
2023-03-26T07:05:50.442Z,2.35
2023-03-26T07:08:52.417Z,2.13
2023-03-26T07:11:54.211Z,2.00
2023-03-26T07:14:56.411Z,2.67
2023-03-26T07:17:59.250Z,1.80
2023-03-26T07:21:01.438Z,2.20
2023-03-26T07:24:03.612Z,2.38
2023-03-26T07:27:18.146Z,1.90
2023-03-26T07:30:27.894Z,2.05
2023-03-26T07:33:31.975Z,2.10
2023-03-26T07:37:13.313Z,2.08
2023-03-26T07:40:45.628Z,2.05
2023-03-26T07:43:57.492Z,1.90
2023-03-26T07:47:00.818Z,1.90
2023-03-26T07:50:03.137Z,1.95
2023-03-26T07:53:05.174Z,1.85
2023-03-26T07:56:44.357Z,2.05
2023-03-26T08:00:15.388Z,2.03
2023-03-26T08:03:58.319Z,2.00
2023-03-26T08:07:03.727Z,2.28
2023-03-26T08:10:37.770Z,2.10
2023-03-26T08:13:45.109Z,2.10
2023-03-26T08:16:52.801Z,2.00
2023-03-26T08:20:13.175Z,1.70
2023-03-26T08:23:30.925Z,1.90
2023-03-26T08:26:51.541Z,1.90
2023-03-26T08:30:11.973Z,1.75
2023-03-26T08:33:16.934Z,1.80
2023-03-26T08:36:18.659Z,1.85
2023-03-26T08:39:22.459Z,1.83
2023-03-26T08:42:55.684Z,1.80
2023-03-26T08:46:06.499Z,2.03
2023-03-26T08:49:36.144Z,1.80
2023-03-26T08:52:58.080Z,1.77
2023-03-26T08:56:36.172Z,2.08
2023-03-26T08:59:52.077Z,1.50
2023-03-26T09:03:21.282Z,1.98
2023-03-26T09:07:00.749Z,1.93
2023-03-26T09:10:21.181Z,1.63
2023-03-26T09:14:05.046Z,1.70
2023-03-26T09:17:42.583Z,2.03
2023-03-26T09:21:03.101Z,1.80
2023-03-26T09:24:37.890Z,1.97
2023-03-26T09:28:02.594Z,1.60
2023-03-26T09:31:07.901Z,2.00
2023-03-26T09:34:39.657Z,1.77
2023-03-26T09:37:58.595Z,1.63
2023-03-26T09:41:31.657Z,1.80
2023-03-26T09:44:44.049Z,1.90
2023-03-26T09:48:24.194Z,1.70
2023-03-26T09:51:31.860Z,1.48
2023-03-26T09:54:33.533Z,2.05
2023-03-26T09:57:59.345Z,1.70
2023-03-26T10:01:35.299Z,1.80
2023-03-26T10:05:05.211Z,1.83
2023-03-26T10:08:17.197Z,1.70
2023-03-26T10:11:56.288Z,2.20
2023-03-26T10:15:36.795Z,1.33
2023-03-26T10:19:07.846Z,1.15
2023-03-26T10:22:43.645Z,1.33
2023-03-26T10:26:04.526Z,1.25
2023-03-26T10:29:18.618Z,1.27
2023-03-26T10:32:30.540Z,1.17
2023-03-26T10:35:47.566Z,1.60
2023-03-26T10:39:37.758Z,1.27
2023-03-26T10:42:48.319Z,1.38
2023-03-26T10:45:59.139Z,1.60
2023-03-26T10:49:26.011Z,1.10
2023-03-26T10:52:39.209Z,1.08
2023-03-26T10:55:41.970Z,1.10
2023-03-26T10:58:49.698Z,0.98
2023-03-26T11:02:00.973Z,1.20
2023-03-26T11:05:21.338Z,1.03
2023-03-26T11:08:31.706Z,1.10
2023-03-26T11:11:46.272Z,1.33
2023-03-26T11:14:57.574Z,1.08
2023-03-26T11:18:04.662Z,1.20
2023-03-26T11:21:32.655Z,1.00
2023-03-26T11:24:52.463Z,1.00
2023-03-26T11:29:03.973Z,0.68
2023-03-26T11:32:22.283Z,0.80
2023-03-26T11:35:40.807Z,0.85
2023-03-26T11:38:53.925Z,0.90
2023-03-26T11:42:06.503Z,0.82
2023-03-26T11:45:19.611Z,1.00
2023-03-26T11:48:27.877Z,0.77
2023-03-26T11:51:36.498Z,0.98
2023-03-26T11:54:39.024Z,0.60
2023-03-26T11:57:42.530Z,0.80
2023-03-26T12:00:45.306Z,1.10
2023-03-26T12:04:11.272Z,0.90
2023-03-26T12:07:18.149Z,0.80
2023-03-26T12:10:39.050Z,0.80
2023-03-26T12:13:45.032Z,0.50
2023-03-26T12:17:07.623Z,0.90
2023-03-26T12:20:27.801Z,1.10
2023-03-26T12:23:56.449Z,0.95
2023-03-26T12:27:02.234Z,2.23
2023-03-26T12:30:12.621Z,1.73
2023-03-26T12:33:18.396Z,2.50
2023-03-26T12:36:31.242Z,0.90
2023-03-26T12:40:09.079Z,1.88
2023-03-26T12:44:48.897Z,1.53
2023-03-26T12:47:54.629Z,1.23
2023-03-26T12:49:58.120Z,1.08
2023-03-26T12:53:28.465Z,1.10
2023-03-26T12:57:11.925Z,1.00
2023-03-26T13:00:35.703Z,1.60
2023-03-26T13:03:46.485Z,1.85
2023-03-26T13:07:02.019Z,0.90
2023-03-26T13:10:08.645Z,0.88
2023-03-26T13:13:22.601Z,8.57
2023-03-26T13:16:47.854Z,2.47
2023-03-26T13:20:06.986Z,1.38
2023-03-26T13:23:44.802Z,1.38
2023-03-26T13:26:52.390Z,1.38
2023-03-26T13:29:59.710Z,3.10
2023-03-26T13:33:15.568Z,3.17
2023-03-26T13:37:19.202Z,2.88
2023-03-26T13:40:55.734Z,1.30
2023-03-26T13:44:02.754Z,0.73
2023-03-26T13:47:20.018Z,0.90
2023-03-26T13:50:29.526Z,1.13
2023-03-26T13:53:45.057Z,1.10
2023-03-26T13:56:49.637Z,1.00
2023-03-26T13:59:55.696Z,1.35
2023-03-26T14:03:04.156Z,0.80
2023-03-26T14:06:13.844Z,0.70
2023-03-26T14:09:31.566Z,0.80
2023-03-26T14:12:49.450Z,1.02
2023-03-26T14:16:00.275Z,1.20
2023-03-26T14:19:14.010Z,0.70
2023-03-26T14:22:24.058Z,1.60
2023-03-26T14:25:44.275Z,3.60
2023-03-26T14:28:57.801Z,4.90
2023-03-26T14:32:24.919Z,3.92
2023-03-26T14:35:29.757Z,2.33
2023-03-26T14:38:48.320Z,2.00
2023-03-26T14:41:56.954Z,1.67
2023-03-26T14:45:20.561Z,2.95
2023-03-26T14:48:39.326Z,2.70
2023-03-26T14:52:01.852Z,1.60
2023-03-26T14:55:05.700Z,2.37
2023-03-26T14:58:14.962Z,1.70
2023-03-26T15:01:26.829Z,2.20
2023-03-26T15:04:54.285Z,2.42
2023-03-26T15:08:53.466Z,1.30
2023-03-26T15:12:29.633Z,1.63
2023-03-26T15:15:43.373Z,1.55
2023-03-26T15:19:13.273Z,2.00
2023-03-26T15:22:43.109Z,1.80
2023-03-26T15:26:18.886Z,2.60
2023-03-26T15:29:56.997Z,2.77
2023-03-26T15:33:10.777Z,3.53
2023-03-26T15:36:41.187Z,1.92
2023-03-26T15:40:23.957Z,1.92
2023-03-26T15:43:26.290Z,3.20
2023-03-26T15:46:31.137Z,1.83
2023-03-26T15:49:45.896Z,1.70
2023-03-26T15:52:58.664Z,2.85
2023-03-26T15:56:07.585Z,3.50
2023-03-26T15:59:31.292Z,3.13
2023-03-26T16:02:53.912Z,2.13
2023-03-26T16:06:24.595Z,2.50
2023-03-26T16:09:49.998Z,2.70
2023-03-26T16:13:15.196Z,2.58
2023-03-26T16:16:19.903Z,3.42
2023-03-26T16:19:21.970Z,2.23
2023-03-26T16:22:48.030Z,1.73
2023-03-26T16:26:10.773Z,1.25
2023-03-26T16:29:18.889Z,1.00
2023-03-26T16:32:34.939Z,1.02
2023-03-26T16:36:02.543Z,1.10
2023-03-26T16:39:07.844Z,0.98
2023-03-26T16:42:15.840Z,1.20
2023-03-26T16:45:39.958Z,0.80
2023-03-26T16:48:57.159Z,1.08
2023-03-26T16:52:11.267Z,0.97
2023-03-26T16:55:20.398Z,0.80
2023-03-26T16:58:51.170Z,1.00
2023-03-26T17:02:05.346Z,0.73
2023-03-26T17:05:44.043Z,0.75
2023-03-26T17:08:56.307Z,0.87
2023-03-26T17:12:10.803Z,0.70
2023-03-26T17:15:37.068Z,1.05
2023-03-26T17:18:42.065Z,1.00
2023-03-26T17:22:15.099Z,1.13
2023-03-26T17:25:23.212Z,0.83
2023-03-26T17:28:37.242Z,1.27
2023-03-26T17:31:59.653Z,1.20
2023-03-26T17:35:06.851Z,1.00
2023-03-26T17:38:32.194Z,1.30
2023-03-26T17:42:02.802Z,1.23
2023-03-26T17:45:34.546Z,1.05
2023-03-26T17:48:37.059Z,1.33
2023-03-26T17:51:50.482Z,1.70
2023-03-26T17:54:57.368Z,1.67
2023-03-26T17:58:03.593Z,1.47
2023-03-26T18:01:17.491Z,1.60
2023-03-26T18:04:34.865Z,1.75
2023-03-26T18:08:17.090Z,1.88
2023-03-26T18:11:28.011Z,1.50
2023-03-26T18:15:01.902Z,1.33
2023-03-26T18:18:23.135Z,0.95
2023-03-26T18:21:35.128Z,1.20
2023-03-26T18:24:44.101Z,1.77
2023-03-26T18:27:45.812Z,3.05
2023-03-26T18:30:52.411Z,2.97
2023-03-26T18:33:59.404Z,3.47
2023-03-26T18:37:23.217Z,4.20
2023-03-26T18:40:25.606Z,4.57
2023-03-26T18:43:35.286Z,4.68
2023-03-26T18:46:41.578Z,3.77
2023-03-26T18:49:44.602Z,3.63
2023-03-26T18:52:46.286Z,3.88
2023-03-26T18:55:54.574Z,3.50
2023-03-26T18:59:00.057Z,3.97
2023-03-26T19:02:13.320Z,3.23
2023-03-26T19:05:16.855Z,2.90
2023-03-26T19:08:18.632Z,2.90
2023-03-26T19:11:24.181Z,4.93
2023-03-26T19:14:27.733Z,6.60
2023-03-26T19:17:35.263Z,7.50
2023-03-26T19:20:43.285Z,6.35
2023-03-26T19:23:49.446Z,9.00
2023-03-26T19:26:51.239Z,6.78
2023-03-26T19:29:56.012Z,5.80
2023-03-26T19:33:12.639Z,5.03
2023-03-26T19:36:21.233Z,5.10
2023-03-26T19:42:48.915Z,4.10
2023-03-26T19:46:00.429Z,9.52
2023-03-26T19:49:41.361Z,9.23
2023-03-26T19:51:18.077Z,4.45
2023-03-26T19:52:47.027Z,4.00
2023-03-26T19:56:15.198Z,1.80
2023-03-26T19:59:20.557Z,1.10
2023-03-26T20:02:22.775Z,1.40
2023-03-26T20:05:26.462Z,1.10
2023-03-26T20:08:32.664Z,1.20
2023-03-26T20:11:44.469Z,1.20
2023-03-26T20:14:46.599Z,1.40
2023-03-26T20:17:52.554Z,1.30
2023-03-26T20:20:55.098Z,1.07
2023-03-26T20:24:00.214Z,1.00
2023-03-26T20:27:05.701Z,1.55
2023-03-26T20:30:13.991Z,2.80
2023-03-26T20:33:27.231Z,4.35
2023-03-26T20:36:33.455Z,1.10
2023-03-26T20:39:39.482Z,2.05
2023-03-26T20:42:41.778Z,2.60
2023-03-26T20:45:47.879Z,1.80
2023-03-26T20:48:56.434Z,1.13
2023-03-26T20:51:59.596Z,0.80
2023-03-26T20:55:04.353Z,1.23
2023-03-26T20:58:09.896Z,1.40
2023-03-26T21:01:15.388Z,0.98
2023-03-26T21:04:17.390Z,1.20
2023-03-26T21:07:19.886Z,1.10
2023-03-26T21:10:22.050Z,1.60
2023-03-26T21:13:43.733Z,1.20
2023-03-26T21:16:45.698Z,1.20
2023-03-26T21:19:51.168Z,1.50
2023-03-26T21:23:05.175Z,1.40
2023-03-26T21:26:21.093Z,1.13
2023-03-26T21:29:27.529Z,1.25
2023-03-26T21:32:30.055Z,1.63
2023-03-26T21:35:35.898Z,1.40
2023-03-26T21:38:38.120Z,1.10
2023-03-26T21:42:04.862Z,1.10
2023-03-26T21:45:08.682Z,1.50
2023-03-26T21:48:14.165Z,1.45
2023-03-26T21:51:22.341Z,1.95
2023-03-26T21:54:26.329Z,1.33
2023-03-26T21:57:40.661Z,1.58
2023-03-26T22:00:58.943Z,1.50
2023-03-26T22:04:08.845Z,1.23
2023-03-26T22:07:13.335Z,1.23
2023-03-26T22:10:18.882Z,1.23
2023-03-26T22:13:20.610Z,1.50
2023-03-26T22:16:28.088Z,1.23
2023-03-26T22:19:34.768Z,1.73
2023-03-26T22:22:36.545Z,1.65
2023-03-26T22:25:38.886Z,1.40
2023-03-26T22:28:44.722Z,1.35
2023-03-26T22:31:49.505Z,1.20
2023-03-26T22:34:52.213Z,1.45
2023-03-26T22:38:00.726Z,1.30
2023-03-26T22:41:03.088Z,1.27
2023-03-26T22:44:19.750Z,1.17
2023-03-26T22:47:26.836Z,1.30
2023-03-26T22:50:31.475Z,1.42
2023-03-26T22:53:33.190Z,1.40
2023-03-26T22:56:39.850Z,1.57
2023-03-26T22:59:45.330Z,1.50
2023-03-26T23:02:47.228Z,1.55
2023-03-26T23:05:56.892Z,1.33
2023-03-26T23:08:59.039Z,1.60
2023-03-26T23:12:04.676Z,1.30
2023-03-26T23:15:10.164Z,1.40
2023-03-26T23:18:15.736Z,1.70
2023-03-26T23:21:19.314Z,1.13
2023-03-26T23:24:21.206Z,1.30
2023-03-26T23:27:26.841Z,1.27
2023-03-26T23:30:36.874Z,1.15
2023-03-26T23:33:39.173Z,1.40
2023-03-26T23:36:41.955Z,1.10
2023-03-26T23:39:46.842Z,1.00
2023-03-26T23:42:49.629Z,0.97
2023-03-26T23:45:54.641Z,0.95
2023-03-26T23:48:59.930Z,1.20
2023-03-26T23:52:05.593Z,0.90
2023-03-26T23:55:08.241Z,1.02
2023-03-26T23:58:13.889Z,1.20
